createdAt,value
2023-01-19T00:02:37.604Z,38.28
2023-01-19T00:05:24.558Z,39.05
2023-01-19T00:08:17.623Z,26.70
2023-01-19T00:11:13.279Z,24.60
2023-01-19T00:13:58.993Z,26.92
2023-01-19T00:16:44.664Z,37.30
2023-01-19T00:19:30.428Z,30.52
2023-01-19T00:22:16.439Z,32.60
2023-01-19T00:25:02.188Z,42.38
2023-01-19T00:27:49.490Z,39.90
2023-01-19T00:30:35.228Z,32.10
2023-01-19T00:33:20.754Z,32.60
2023-01-19T00:36:06.663Z,31.50
2023-01-19T00:38:52.514Z,38.47
2023-01-19T00:42:00.990Z,34.03
2023-01-19T00:45:20.589Z,39.05
2023-01-19T00:48:07.538Z,44.85
2023-01-19T00:50:54.713Z,42.85
2023-01-19T00:53:44.401Z,38.40
2023-01-19T00:56:33.253Z,32.08
2023-01-19T00:59:21.181Z,41.33
2023-01-19T01:02:07.363Z,41.83
2023-01-19T01:04:55.020Z,32.10
2023-01-19T01:07:41.856Z,43.75
2023-01-19T01:10:29.283Z,42.15
2023-01-19T01:13:22.322Z,42.03
2023-01-19T01:16:16.413Z,58.85
2023-01-19T01:19:02.130Z,56.92
2023-01-19T01:21:47.769Z,44.17
2023-01-19T01:24:33.564Z,40.13
2023-01-19T01:27:19.294Z,53.97
2023-01-19T01:30:06.029Z,47.00
2023-01-19T01:32:51.882Z,35.13
2023-01-19T01:35:37.912Z,45.28
2023-01-19T01:38:23.844Z,27.48
2023-01-19T01:41:09.709Z,52.00
2023-01-19T01:44:01.836Z,44.35
2023-01-19T01:46:53.566Z,37.00
2023-01-19T01:49:39.221Z,41.50
2023-01-19T01:53:06.527Z,41.50
2023-01-19T01:55:53.631Z,34.78
2023-01-19T01:58:39.946Z,41.22
2023-01-19T02:01:45.415Z,40.28
2023-01-19T02:04:31.951Z,32.78
2023-01-19T02:07:54.424Z,45.00
2023-01-19T02:11:02.649Z,29.88
2023-01-19T02:13:51.016Z,37.40
2023-01-19T02:16:37.164Z,26.30
2023-01-19T02:19:31.282Z,31.38
2023-01-19T02:22:36.125Z,30.38
2023-01-19T02:25:23.257Z,36.55
2023-01-19T02:28:08.895Z,33.15
2023-01-19T02:30:55.243Z,34.78
2023-01-19T02:33:41.782Z,27.20
2023-01-19T02:36:50.968Z,31.20
2023-01-19T02:40:14.469Z,39.45
2023-01-19T02:43:06.660Z,37.63
2023-01-19T02:45:52.858Z,29.52
2023-01-19T02:48:38.902Z,33.28
2023-01-19T02:51:25.038Z,31.92
2023-01-19T02:54:26.439Z,23.90
2023-01-19T02:57:48.684Z,29.23
2023-01-19T03:00:42.423Z,34.50
2023-01-19T03:03:41.961Z,43.25
2023-01-19T03:06:32.680Z,33.95
2023-01-19T03:09:49.725Z,24.08
2023-01-19T03:12:47.593Z,35.25
2023-01-19T03:15:45.358Z,20.90
2023-01-19T03:18:32.656Z,29.77
2023-01-19T03:21:19.976Z,31.90
2023-01-19T03:24:07.527Z,37.05
2023-01-19T03:26:58.848Z,48.70
2023-01-19T03:29:50.914Z,42.60
2023-01-19T03:32:43.396Z,29.65
2023-01-19T03:35:32.145Z,31.05
2023-01-19T03:38:22.585Z,36.83
2023-01-19T03:41:11.812Z,48.20
2023-01-19T03:43:59.318Z,44.33
2023-01-19T03:46:46.542Z,42.45
2023-01-19T03:49:33.241Z,36.60
2023-01-19T03:52:26.133Z,39.72
2023-01-19T03:55:12.617Z,33.30
2023-01-19T03:57:58.264Z,41.95
2023-01-19T04:00:44.097Z,37.03
2023-01-19T04:03:29.959Z,31.02
2023-01-19T04:06:15.669Z,43.20
2023-01-19T04:09:01.519Z,23.67
2023-01-19T04:11:47.327Z,35.47
2023-01-19T04:14:33.385Z,29.45
2023-01-19T04:17:19.424Z,44.38
2023-01-19T04:20:06.087Z,29.85
2023-01-19T04:22:51.841Z,37.50
2023-01-19T04:25:38.945Z,38.35
2023-01-19T04:28:26.917Z,41.33
2023-01-19T04:31:12.736Z,44.22
2023-01-19T04:33:58.409Z,45.63
2023-01-19T04:36:45.392Z,33.47
2023-01-19T04:39:31.250Z,37.50
2023-01-19T04:42:17.108Z,41.80
2023-01-19T04:45:03.037Z,44.88
2023-01-19T04:47:50.468Z,52.17
2023-01-19T04:50:36.421Z,32.15
2023-01-19T04:53:22.110Z,42.10
2023-01-19T04:56:07.726Z,35.00
2023-01-19T04:58:53.397Z,37.72
2023-01-19T05:01:39.048Z,43.60
2023-01-19T05:04:25.708Z,43.63
2023-01-19T05:07:11.371Z,47.88
2023-01-19T05:09:57.282Z,40.42
2023-01-19T05:12:43.065Z,45.17
2023-01-19T05:15:29.691Z,31.50
2023-01-19T05:18:15.390Z,23.98
2023-01-19T05:21:02.316Z,21.75
2023-01-19T05:23:48.427Z,17.83
2023-01-19T05:26:33.979Z,22.70
2023-01-19T05:29:19.731Z,42.00
2023-01-19T05:32:05.980Z,30.67
2023-01-19T05:34:51.607Z,21.83
2023-01-19T05:37:37.303Z,24.88
2023-01-19T05:40:22.930Z,32.60
2023-01-19T05:43:08.718Z,37.22
2023-01-19T05:45:54.536Z,45.85
2023-01-19T05:48:40.369Z,42.38
2023-01-19T05:51:26.219Z,36.42
2023-01-19T05:54:15.261Z,39.05
2023-01-19T05:57:01.635Z,40.72
2023-01-19T05:59:47.525Z,41.53
2023-01-19T06:02:33.346Z,31.67
2023-01-19T06:05:19.381Z,32.05
2023-01-19T06:08:05.361Z,32.85
2023-01-19T06:10:51.222Z,21.70
2023-01-19T06:14:09.816Z,32.15
2023-01-19T06:16:55.558Z,29.33
2023-01-19T06:19:42.499Z,30.25
2023-01-19T06:22:31.403Z,29.25
2023-01-19T06:25:18.405Z,22.80
2023-01-19T06:28:08.262Z,17.08
2023-01-19T06:30:55.510Z,23.85
2023-01-19T06:33:41.588Z,12.32
2023-01-19T06:36:29.451Z,14.93
2023-01-19T06:39:15.193Z,8.98
2023-01-19T06:42:01.002Z,22.65
2023-01-19T06:44:48.121Z,10.93
2023-01-19T06:47:34.527Z,20.00
2023-01-19T06:50:20.463Z,19.27
2023-01-19T06:53:06.201Z,16.10
2023-01-19T06:55:51.792Z,22.23
2023-01-19T06:58:37.713Z,16.33
2023-01-19T07:01:23.382Z,7.13
2023-01-19T07:04:10.734Z,6.22
2023-01-19T07:06:57.268Z,10.35
2023-01-19T07:09:43.048Z,9.05
2023-01-19T07:12:30.806Z,7.55
2023-01-19T07:15:17.858Z,13.88
2023-01-19T07:18:07.849Z,7.82
2023-01-19T07:20:53.646Z,3.67
2023-01-19T07:28:35.161Z,7.18
2023-01-19T07:31:21.091Z,4.47
2023-01-19T07:34:07.150Z,8.20
2023-01-19T07:36:53.241Z,14.43
2023-01-19T07:39:38.972Z,6.88
2023-01-19T07:43:30.127Z,5.38
2023-01-19T07:51:31.526Z,8.20
2023-01-19T07:54:45.684Z,12.52
2023-01-19T08:00:24.597Z,9.05
2023-01-19T08:03:10.603Z,9.10
2023-01-19T08:14:49.615Z,3.30
2023-01-19T08:17:35.899Z,11.65
2023-01-19T08:20:26.069Z,16.65
2023-01-19T08:41:37.257Z,18.02
2023-01-19T08:44:23.081Z,22.00
2023-01-19T09:42:44.119Z,27.10
2023-01-19T09:45:32.934Z,50.42
2023-01-19T09:48:47.936Z,68.93
2023-01-19T09:51:38.453Z,69.70
2023-01-19T09:54:26.500Z,51.80
2023-01-19T09:57:12.402Z,71.20
2023-01-19T09:59:59.780Z,76.45
2023-01-19T10:02:48.388Z,60.22
2023-01-19T10:05:44.764Z,48.95
2023-01-19T10:08:46.818Z,47.17
2023-01-19T10:11:51.977Z,45.83
2023-01-19T10:14:56.841Z,63.45
2023-01-19T10:17:46.114Z,67.65
2023-01-19T10:20:40.344Z,58.83
2023-01-19T10:23:42.566Z,48.83
2023-01-19T10:26:38.836Z,58.78
2023-01-19T10:29:38.571Z,56.47
2023-01-19T10:32:30.829Z,68.03
2023-01-19T10:35:24.377Z,58.08
2023-01-19T10:38:13.710Z,53.70
2023-01-19T10:41:06.251Z,44.38
2023-01-19T10:44:03.394Z,42.00
2023-01-19T10:49:42.644Z,26.90
2023-01-19T10:52:34.033Z,23.33
2023-01-19T10:55:43.135Z,24.48
2023-01-19T10:58:31.441Z,27.00
2023-01-19T11:01:24.037Z,27.25
2023-01-19T11:04:27.038Z,34.92
2023-01-19T11:07:20.200Z,25.70
2023-01-19T11:10:29.521Z,28.25
2023-01-19T11:13:16.450Z,31.38
2023-01-19T11:16:05.295Z,28.02
2023-01-19T11:18:53.011Z,23.52
2023-01-19T11:21:38.857Z,16.15
2023-01-19T11:24:24.525Z,16.52
2023-01-19T11:27:10.314Z,11.95
2023-01-19T11:30:29.746Z,13.85
2023-01-19T11:33:50.816Z,26.23
2023-01-19T11:36:37.782Z,22.23
2023-01-19T11:39:25.713Z,27.30
2023-01-19T11:42:15.502Z,18.50
2023-01-19T11:45:04.721Z,14.77
2023-01-19T11:47:52.575Z,15.90
2023-01-19T11:50:45.086Z,13.40
2023-01-19T11:53:34.591Z,10.75
2023-01-19T11:56:29.010Z,8.27
2023-01-19T11:59:30.466Z,11.73
2023-01-19T12:02:19.614Z,14.27
2023-01-19T12:05:07.757Z,13.57
2023-01-19T12:07:54.696Z,15.07
2023-01-19T12:10:44.675Z,20.25
2023-01-19T12:13:31.923Z,46.72
2023-01-19T12:16:19.101Z,23.00
2023-01-19T12:19:11.227Z,37.70
2023-01-19T12:21:58.121Z,28.63
2023-01-19T12:25:12.860Z,73.00
2023-01-19T12:28:02.520Z,43.53
2023-01-19T12:30:49.869Z,31.55
2023-01-19T12:33:46.465Z,17.70
2023-01-19T12:36:38.344Z,25.67
2023-01-19T12:39:25.286Z,18.88
2023-01-19T12:42:17.212Z,26.10
2023-01-19T12:45:09.204Z,217.10
2023-01-19T12:47:55.819Z,37.13
2023-01-19T12:50:46.106Z,53.63
2023-01-19T12:53:35.009Z,108.75
2023-01-19T12:56:31.253Z,77.78
2023-01-19T12:59:28.226Z,33.33
2023-01-19T13:02:23.099Z,86.75
2023-01-19T13:05:33.283Z,30.88
2023-01-19T13:08:24.474Z,34.45
2023-01-19T13:11:17.058Z,34.58
2023-01-19T13:14:03.093Z,21.67
2023-01-19T13:17:07.292Z,22.55
2023-01-19T13:20:16.088Z,28.45
2023-01-19T13:23:29.430Z,23.58
2023-01-19T13:26:16.947Z,17.75
2023-01-19T13:29:25.928Z,25.48
2023-01-19T13:32:18.871Z,25.70
2023-01-19T13:35:04.767Z,26.80
2023-01-19T13:38:12.115Z,30.77
2023-01-19T13:41:06.102Z,37.13
2023-01-19T13:44:13.581Z,30.83
2023-01-19T13:47:00.171Z,34.65
2023-01-19T13:49:56.708Z,24.70
2023-01-19T13:52:43.847Z,19.77
2023-01-19T13:55:32.030Z,42.42
2023-01-19T13:58:22.487Z,48.50
2023-01-19T14:01:22.183Z,46.80
2023-01-19T14:04:32.632Z,26.42
2023-01-19T14:10:54.000Z,17.27
2023-01-19T14:13:44.926Z,17.55
2023-01-19T14:16:30.948Z,18.40
2023-01-19T14:19:18.791Z,24.70
2023-01-19T14:22:05.098Z,16.80
2023-01-19T14:24:50.764Z,12.80
2023-01-19T14:27:37.756Z,45.03
2023-01-19T14:30:26.078Z,19.40
2023-01-19T14:33:34.472Z,40.85
2023-01-19T14:36:36.328Z,87.40
2023-01-19T14:39:25.441Z,130.13
2023-01-19T14:42:25.936Z,40.08
2023-01-19T14:45:27.366Z,28.25
2023-01-19T14:48:18.066Z,12.10
2023-01-19T14:51:04.965Z,14.95
2023-01-19T14:53:53.981Z,15.32
2023-01-19T14:56:44.164Z,14.52
2023-01-19T14:59:30.436Z,19.60
2023-01-19T15:02:48.670Z,15.15
2023-01-19T15:06:15.865Z,18.08
2023-01-19T15:09:01.997Z,17.52
2023-01-19T15:12:57.373Z,16.80
2023-01-19T15:15:43.388Z,42.22
2023-01-19T15:18:28.990Z,43.28
2023-01-19T15:21:33.211Z,41.85
2023-01-19T15:24:19.352Z,39.17
2023-01-19T15:27:06.263Z,28.88
2023-01-19T15:29:52.256Z,27.98
2023-01-19T15:32:43.721Z,30.20
2023-01-19T15:36:05.613Z,28.00
2023-01-19T15:38:51.473Z,30.77
2023-01-19T15:41:39.565Z,26.65
2023-01-19T15:44:25.406Z,20.10
2023-01-19T15:47:11.649Z,19.50
2023-01-19T15:54:34.340Z,26.13
2023-01-19T15:57:20.221Z,16.35
2023-01-19T16:00:07.031Z,41.45
2023-01-19T16:02:56.009Z,34.97
2023-01-19T16:05:43.361Z,31.50
2023-01-19T16:08:30.597Z,26.98
2023-01-19T16:11:18.547Z,18.40
2023-01-19T16:14:04.412Z,20.00
2023-01-19T16:16:50.477Z,23.70
2023-01-19T16:19:36.496Z,20.67
2023-01-19T16:22:22.391Z,19.05
2023-01-19T16:25:09.651Z,27.35
2023-01-19T16:27:56.981Z,21.40
2023-01-19T16:30:43.281Z,22.80
2023-01-19T16:33:29.651Z,31.85
2023-01-19T16:36:27.390Z,22.17
2023-01-19T16:39:14.453Z,21.70
2023-01-19T16:42:00.475Z,19.77
2023-01-19T16:44:46.446Z,28.65
2023-01-19T16:47:32.677Z,24.10
2023-01-19T16:50:19.395Z,24.08
2023-01-19T16:53:05.136Z,74.40
2023-01-19T16:55:53.054Z,53.95
2023-01-19T16:58:39.924Z,39.45
2023-01-19T17:01:28.117Z,39.67
2023-01-19T17:04:14.552Z,30.45
2023-01-19T17:07:00.489Z,26.52
2023-01-19T17:09:46.228Z,26.38
2023-01-19T17:12:32.444Z,25.05
2023-01-19T17:15:18.513Z,30.50
2023-01-19T17:18:04.470Z,35.25
2023-01-19T17:20:50.352Z,39.72
2023-01-19T17:23:37.832Z,48.08
2023-01-19T17:26:28.695Z,53.20
2023-01-19T17:29:15.221Z,49.92
2023-01-19T17:32:01.354Z,47.20
2023-01-19T17:34:49.318Z,49.30
2023-01-19T17:37:35.490Z,39.05
2023-01-19T17:40:21.376Z,26.50
2023-01-19T17:43:07.763Z,25.60
2023-01-19T17:45:53.761Z,34.45
2023-01-19T17:48:40.132Z,44.97
2023-01-19T17:51:26.368Z,51.50
2023-01-19T17:54:12.570Z,59.30
2023-01-19T17:56:58.254Z,52.63
2023-01-19T17:59:44.140Z,62.90
2023-01-19T18:02:30.086Z,162.23
2023-01-19T18:05:16.022Z,118.30
2023-01-19T18:08:02.975Z,94.30
2023-01-19T18:10:59.662Z,208.95
2023-01-19T18:13:48.497Z,159.40
2023-01-19T18:16:35.932Z,54.72
2023-01-19T18:19:22.561Z,36.70
2023-01-19T18:22:08.556Z,26.50
2023-01-19T18:24:54.408Z,24.90
2023-01-19T18:27:40.188Z,26.50
2023-01-19T18:30:31.320Z,35.65
2023-01-19T18:33:16.959Z,33.10
2023-01-19T18:36:08.459Z,31.95
2023-01-19T18:38:54.442Z,30.73
2023-01-19T18:41:43.027Z,34.90
2023-01-19T18:44:34.058Z,29.05
2023-01-19T18:47:19.835Z,34.30
2023-01-19T18:50:29.920Z,30.15
2023-01-19T18:53:15.555Z,34.97
2023-01-19T18:56:27.060Z,32.97
2023-01-19T18:59:13.290Z,32.00
2023-01-19T19:02:05.994Z,34.85
2023-01-19T19:04:52.223Z,39.43
2023-01-19T19:07:38.280Z,31.95
2023-01-19T19:10:28.374Z,34.85
2023-01-19T19:13:16.057Z,33.92
2023-01-19T19:16:05.087Z,52.13
2023-01-19T19:18:50.883Z,25.20
2023-01-19T19:22:11.041Z,32.45
2023-01-19T19:24:56.949Z,34.67
2023-01-19T19:27:52.635Z,32.08
2023-01-19T19:30:39.123Z,26.73
2023-01-19T19:33:25.362Z,21.30
2023-01-19T19:36:16.947Z,24.45
2023-01-19T19:39:02.737Z,29.27
2023-01-19T19:41:48.889Z,28.73
2023-01-19T19:44:40.331Z,27.42
2023-01-19T19:47:29.157Z,31.52
2023-01-19T19:50:15.333Z,33.83
2023-01-19T19:53:08.652Z,32.83
2023-01-19T19:55:59.054Z,31.33
2023-01-19T19:58:44.778Z,34.08
2023-01-19T20:01:45.064Z,29.73
2023-01-19T20:04:30.985Z,32.67
2023-01-19T20:07:17.929Z,30.40
2023-01-19T20:10:08.488Z,36.05
2023-01-19T20:12:54.541Z,31.60
2023-01-19T20:15:40.568Z,37.55
2023-01-19T20:18:26.498Z,36.22
2023-01-19T20:21:14.199Z,42.33
2023-01-19T20:24:09.096Z,39.80
2023-01-19T20:26:58.283Z,46.70
2023-01-19T20:29:58.314Z,47.33
2023-01-19T20:32:44.189Z,56.47
2023-01-19T20:35:41.463Z,59.30
2023-01-19T20:38:27.028Z,88.95
2023-01-19T20:41:14.404Z,115.07
2023-01-19T20:44:00.243Z,126.85
2023-01-19T20:46:53.603Z,127.95
2023-01-19T20:49:39.726Z,126.30
2023-01-19T20:52:25.768Z,124.93
2023-01-19T20:55:14.155Z,108.22
2023-01-19T20:57:59.802Z,103.57
2023-01-19T21:00:45.583Z,95.57
2023-01-19T21:03:34.875Z,84.30
2023-01-19T21:06:21.589Z,64.65
2023-01-19T21:09:09.082Z,56.10
2023-01-19T21:11:57.571Z,73.35
2023-01-19T21:14:48.755Z,100.57
2023-01-19T21:17:34.888Z,88.40
2023-01-19T21:20:22.279Z,91.85
2023-01-19T21:23:08.367Z,100.80
2023-01-19T21:25:59.867Z,104.43
2023-01-19T21:28:45.724Z,102.68
2023-01-19T21:31:33.205Z,108.85
2023-01-19T21:34:19.352Z,95.60
2023-01-19T21:37:11.624Z,84.65
2023-01-19T21:39:57.907Z,88.43
2023-01-19T21:42:43.623Z,86.45
2023-01-19T21:45:30.517Z,93.45
2023-01-19T21:48:16.786Z,85.40
2023-01-19T21:51:02.783Z,85.43
2023-01-19T21:53:52.316Z,78.13
2023-01-19T21:56:38.212Z,74.90
2023-01-19T21:59:23.990Z,64.75
2023-01-19T22:02:14.549Z,58.63
2023-01-19T22:05:02.945Z,58.20
2023-01-19T22:08:12.688Z,57.72
2023-01-19T22:11:16.978Z,55.90
2023-01-19T22:14:02.888Z,54.90
2023-01-19T22:16:55.827Z,52.58
2023-01-19T22:19:41.831Z,50.85
2023-01-19T22:22:28.851Z,52.92
2023-01-19T22:25:15.177Z,55.17
2023-01-19T22:28:08.446Z,50.05
2023-01-19T22:30:54.350Z,52.03
2023-01-19T22:33:40.462Z,47.30
2023-01-19T22:36:34.113Z,45.88
2023-01-19T22:39:20.055Z,39.17
2023-01-19T22:42:08.338Z,42.78
2023-01-19T22:44:54.318Z,38.38
2023-01-19T22:47:40.653Z,36.67
2023-01-19T22:50:30.498Z,36.05
2023-01-19T22:53:16.181Z,38.28
2023-01-19T22:56:17.052Z,35.97
2023-01-19T22:59:03.947Z,37.95
2023-01-19T23:02:00.465Z,54.97
2023-01-19T23:04:46.246Z,41.53
2023-01-19T23:07:39.811Z,40.55
2023-01-19T23:10:25.739Z,38.97
2023-01-19T23:13:12.974Z,36.42
2023-01-19T23:15:59.047Z,35.00
2023-01-19T23:18:52.851Z,36.45
2023-01-19T23:24:39.680Z,40.65
2023-01-19T23:27:25.719Z,44.85
2023-01-19T23:30:13.160Z,38.22
2023-01-19T23:32:58.688Z,43.92
2023-01-19T23:35:47.545Z,43.58
2023-01-19T23:38:35.232Z,44.53
2023-01-19T23:41:21.807Z,47.53
2023-01-19T23:44:11.557Z,54.28
2023-01-19T23:46:58.045Z,52.38
2023-01-19T23:49:43.980Z,52.90
2023-01-19T23:52:33.889Z,52.88
2023-01-19T23:55:19.521Z,55.78
2023-01-19T23:58:07.123Z,61.50
